sensor_id;sensor_type;location;lat;lon;timestamp;pressure;altitude;pressure_sealevel;temperature;humidity
83551;BME280;74617;47.082;15.524;2024-01-25T00:01:37;97169.19;;;20.19;39.83
83551;BME280;74617;47.082;15.524;2024-01-25T00:04:03;97170.00;;;20.20;39.86
83551;BME280;74617;47.082;15.524;2024-01-25T00:06:28;97166.78;;;20.18;40.18
83551;BME280;74617;47.082;15.524;2024-01-25T00:08:53;97170.63;;;20.17;39.93
83551;BME280;74617;47.082;15.524;2024-01-25T00:11:19;97164.38;;;20.16;39.91
83551;BME280;74617;47.082;15.524;2024-01-25T00:13:44;97174.47;;;20.16;40.12
83551;BME280;74617;47.082;15.524;2024-01-25T00:16:10;97170.97;;;20.15;39.92
83551;BME280;74617;47.082;15.524;2024-01-25T00:18:35;97170.50;;;20.13;39.91
83551;BME280;74617;47.082;15.524;2024-01-25T00:21:00;97154.13;;;20.13;39.99
83551;BME280;74617;47.082;15.524;2024-01-25T00:23:26;97141.63;;;20.12;40.01
83551;BME280;74617;47.082;15.524;2024-01-25T00:25:51;97140.03;;;20.11;40.21
83551;BME280;74617;47.082;15.524;2024-01-25T00:28:17;97148.66;;;20.13;40.01
83551;BME280;74617;47.082;15.524;2024-01-25T00:30:42;97143.53;;;20.12;40.09
83551;BME280;74617;47.082;15.524;2024-01-25T00:33:07;97140.03;;;20.11;40.13
83551;BME280;74617;47.082;15.524;2024-01-25T00:35:33;97124.44;;;20.12;40.10
83551;BME280;74617;47.082;15.524;2024-01-25T00:37:58;97138.38;;;20.10;40.09
83551;BME280;74617;47.082;15.524;2024-01-25T00:40:25;97137.59;;;20.10;40.09
83551;BME280;74617;47.082;15.524;2024-01-25T00:42:51;97143.06;;;20.10;40.04
83551;BME280;74617;47.082;15.524;2024-01-25T00:45:20;97151.56;;;20.08;40.16
83551;BME280;74617;47.082;15.524;2024-01-25T00:47:46;97149.63;;;20.09;39.95
83551;BME280;74617;47.082;15.524;2024-01-25T00:50:12;97163.28;;;20.09;40.18
83551;BME280;74617;47.082;15.524;2024-01-25T00:52:38;97157.50;;;20.10;40.02
83551;BME280;74617;47.082;15.524;2024-01-25T00:55:04;97146.44;;;20.07;40.52
83551;BME280;74617;47.082;15.524;2024-01-25T00:57:30;97160.09;;;20.07;40.06
83551;BME280;74617;47.082;15.524;2024-01-25T00:59:55;97161.69;;;20.08;40.22
83551;BME280;74617;47.082;15.524;2024-01-25T01:02:22;97157.34;;;20.07;40.03
83551;BME280;74617;47.082;15.524;2024-01-25T01:04:47;97162.00;;;20.06;40.22
83551;BME280;74617;47.082;15.524;2024-01-25T01:07:13;97166.34;;;20.07;40.51
83551;BME280;74617;47.082;15.524;2024-01-25T01:09:39;97162.81;;;20.07;40.14
83551;BME280;74617;47.082;15.524;2024-01-25T01:12:04;97160.09;;;20.07;40.13
83551;BME280;74617;47.082;15.524;2024-01-25T01:14:30;97160.88;;;20.07;40.12
83551;BME280;74617;47.082;15.524;2024-01-25T01:16:55;97163.16;;;20.05;40.12
83551;BME280;74617;47.082;15.524;2024-01-25T01:19:20;97153.81;;;20.06;40.23
83551;BME280;74617;47.082;15.524;2024-01-25T01:21:46;97156.09;;;20.04;40.28
83551;BME280;74617;47.082;15.524;2024-01-25T01:24:11;97158.31;;;20.02;40.49
83551;BME280;74617;47.082;15.524;2024-01-25T01:26:37;97157.53;;;20.02;40.25
83551;BME280;74617;47.082;15.524;2024-01-25T01:29:03;97158.31;;;20.02;40.32
83551;BME280;74617;47.082;15.524;2024-01-25T01:31:28;97166.84;;;20.01;40.41
83551;BME280;74617;47.082;15.524;2024-01-25T01:33:54;97139.56;;;20.01;39.95
83551;BME280;74617;47.082;15.524;2024-01-25T01:36:20;97138.75;;;20.00;40.40
83551;BME280;74617;47.082;15.524;2024-01-25T01:38:45;97124.31;;;20.00;40.39
83551;BME280;74617;47.082;15.524;2024-01-25T01:41:11;97121.28;;;20.01;40.43
83551;BME280;74617;47.082;15.524;2024-01-25T01:43:39;97112.16;;;19.97;40.44
83551;BME280;74617;47.082;15.524;2024-01-25T01:46:15;97120.34;;;19.97;40.50
83551;BME280;74617;47.082;15.524;2024-01-25T01:48:46;97123.06;;;19.97;40.26
83551;BME280;74617;47.082;15.524;2024-01-25T01:51:11;97119.19;;;19.98;40.46
83551;BME280;74617;47.082;15.524;2024-01-25T01:53:36;97116.47;;;19.98;40.40
83551;BME280;74617;47.082;15.524;2024-01-25T01:56:02;97117.59;;;19.97;40.19
83551;BME280;74617;47.082;15.524;2024-01-25T01:58:29;97126.59;;;19.98;40.18
83551;BME280;74617;47.082;15.524;2024-01-25T02:00:55;97101.25;;;19.97;40.49
83551;BME280;74617;47.082;15.524;2024-01-25T02:03:21;97115.97;;;19.96;40.39
83551;BME280;74617;47.082;15.524;2024-01-25T02:05:47;97105.06;;;19.96;40.53
83551;BME280;74617;47.082;15.524;2024-01-25T02:08:13;97115.97;;;19.96;40.38
83551;BME280;74617;47.082;15.524;2024-01-25T02:10:38;97115.53;;;19.94;40.56
83551;BME280;74617;47.082;15.524;2024-01-25T02:13:04;97122.09;;;19.93;40.33
83551;BME280;74617;47.082;15.524;2024-01-25T02:15:29;97113.59;;;19.94;40.59
83551;BME280;74617;47.082;15.524;2024-01-25T02:17:55;97108.47;;;19.93;40.39
83551;BME280;74617;47.082;15.524;2024-01-25T02:20:21;97126.44;;;19.94;40.40
83551;BME280;74617;47.082;15.524;2024-01-25T02:22:46;97133.81;;;19.93;40.58
83551;BME280;74617;47.082;15.524;2024-01-25T02:25:12;97135.41;;;19.94;40.67
83551;BME280;74617;47.082;15.524;2024-01-25T02:27:37;97130.75;;;19.95;40.56
83551;BME280;74617;47.082;15.524;2024-01-25T02:30:05;97128.34;;;19.93;40.49
83551;BME280;74617;47.082;15.524;2024-01-25T02:32:31;97134.13;;;19.92;40.57
83551;BME280;74617;47.082;15.524;2024-01-25T02:34:57;97132.22;;;19.92;40.59
83551;BME280;74617;47.082;15.524;2024-01-25T02:37:22;97130.63;;;19.91;40.62
83551;BME280;74617;47.082;15.524;2024-01-25T02:39:47;97119.72;;;19.91;40.38
83551;BME280;74617;47.082;15.524;2024-01-25T02:42:13;97124.81;;;19.93;40.43
83551;BME280;74617;47.082;15.524;2024-01-25T02:44:39;97129.16;;;19.94;40.51
83551;BME280;74617;47.082;15.524;2024-01-25T02:47:05;97133.00;;;19.93;40.58
83551;BME280;74617;47.082;15.524;2024-01-25T02:49:30;97133.00;;;19.93;40.37
83551;BME280;74617;47.082;15.524;2024-01-25T02:51:55;97122.72;;;19.90;40.55
83551;BME280;74617;47.082;15.524;2024-01-25T02:54:21;97133.66;;;19.90;40.74
83551;BME280;74617;47.082;15.524;2024-01-25T02:56:46;97135.56;;;19.89;40.48
83551;BME280;74617;47.082;15.524;2024-01-25T02:59:11;97136.38;;;19.90;40.54
83551;BME280;74617;47.082;15.524;2024-01-25T03:01:39;97142.97;;;19.89;40.51
83551;BME280;74617;47.082;15.524;2024-01-25T03:04:05;97135.91;;;19.88;40.57
83551;BME280;74617;47.082;15.524;2024-01-25T03:06:30;97156.28;;;19.90;40.82
83551;BME280;74617;47.082;15.524;2024-01-25T03:08:56;97154.53;;;19.86;40.49
83551;BME280;74617;47.082;15.524;2024-01-25T03:11:22;97126.94;;;19.87;40.79
83551;BME280;74617;47.082;15.524;2024-01-25T03:13:48;97146.00;;;19.87;40.75
83551;BME280;74617;47.082;15.524;2024-01-25T03:16:13;97137.84;;;19.87;40.89
83551;BME280;74617;47.082;15.524;2024-01-25T03:18:38;97140.91;;;19.86;40.84
83551;BME280;74617;47.082;15.524;2024-01-25T03:21:04;97153.41;;;19.87;40.77
83551;BME280;74617;47.082;15.524;2024-01-25T03:23:29;97162.25;;;19.84;40.82
83551;BME280;74617;47.082;15.524;2024-01-25T03:25:55;97150.19;;;19.85;40.73
83551;BME280;74617;47.082;15.524;2024-01-25T03:28:20;97149.06;;;19.86;40.76
83551;BME280;74617;47.082;15.524;2024-01-25T03:30:48;97149.72;;;19.83;40.69
83551;BME280;74617;47.082;15.524;2024-01-25T03:33:14;97146.97;;;19.83;40.56
83551;BME280;74617;47.082;15.524;2024-01-25T03:35:39;97138.78;;;19.83;40.57
83551;BME280;74617;47.082;15.524;2024-01-25T03:38:04;97129.03;;;19.82;40.70
83551;BME280;74617;47.082;15.524;2024-01-25T03:40:30;97150.84;;;19.82;40.92
83551;BME280;74617;47.082;15.524;2024-01-25T03:42:55;97151.16;;;19.80;40.86
83551;BME280;74617;47.082;15.524;2024-01-25T03:45:20;97163.19;;;19.79;41.01
83551;BME280;74617;47.082;15.524;2024-01-25T03:47:46;97141.72;;;19.78;41.03
83551;BME280;74617;47.082;15.524;2024-01-25T03:50:11;97144.13;;;19.79;40.83
83551;BME280;74617;47.082;15.524;2024-01-25T03:52:37;97132.09;;;19.80;40.96
83551;BME280;74617;47.082;15.524;2024-01-25T03:55:02;97131.63;;;19.78;41.14
83551;BME280;74617;47.082;15.524;2024-01-25T03:57:28;97139.94;;;19.82;40.45
83551;BME280;74617;47.082;15.524;2024-01-25T03:59:53;97146.50;;;19.81;40.30
83551;BME280;74617;47.082;15.524;2024-01-25T04:02:19;97162.88;;;19.81;40.53
83551;BME280;74617;47.082;15.524;2024-01-25T04:04:44;97153.09;;;19.80;40.57
83551;BME280;74617;47.082;15.524;2024-01-25T04:07:09;97158.88;;;19.78;40.53
83551;BME280;74617;47.082;15.524;2024-01-25T04:09:35;97149.41;;;19.76;40.70
83551;BME280;74617;47.082;15.524;2024-01-25T04:12:00;97146.38;;;19.77;40.50
83551;BME280;74617;47.082;15.524;2024-01-25T04:14:25;97158.88;;;19.78;40.50
83551;BME280;74617;47.082;15.524;2024-01-25T04:16:50;97173.31;;;19.79;40.37
83551;BME280;74617;47.082;15.524;2024-01-25T04:19:16;97159.69;;;19.79;40.25
83551;BME280;74617;47.082;15.524;2024-01-25T04:21:41;97163.19;;;19.79;40.37
83551;BME280;74617;47.082;15.524;2024-01-25T04:24:07;97169.78;;;19.78;40.46
83551;BME280;74617;47.082;15.524;2024-01-25T04:26:32;97162.41;;;19.79;40.46
83551;BME280;74617;47.082;15.524;2024-01-25T04:28:57;97182.63;;;19.78;40.33
83551;BME280;74617;47.082;15.524;2024-01-25T04:31:23;97166.72;;;19.80;40.29
83551;BME280;74617;47.082;15.524;2024-01-25T04:33:48;97164.00;;;19.80;40.49
83551;BME280;74617;47.082;15.524;2024-01-25T04:36:13;97165.59;;;19.81;40.52
83551;BME280;74617;47.082;15.524;2024-01-25T04:38:39;97179.06;;;19.86;40.38
83551;BME280;74617;47.082;15.524;2024-01-25T04:41:04;97158.03;;;19.95;40.91
83551;BME280;74617;47.082;15.524;2024-01-25T04:43:37;97165.06;;;19.96;41.38
83551;BME280;74617;47.082;15.524;2024-01-25T04:46:03;97167.50;;;19.98;41.20
83551;BME280;74617;47.082;15.524;2024-01-25T04:48:29;97176.44;;;20.07;41.83
83551;BME280;74617;47.082;15.524;2024-01-25T04:50:56;97190.88;;;20.07;41.69
83551;BME280;74617;47.082;15.524;2024-01-25T04:53:22;97209.00;;;20.03;41.78
83551;BME280;74617;47.082;15.524;2024-01-25T04:55:47;97194.91;;;20.01;41.94
83551;BME280;74617;47.082;15.524;2024-01-25T04:58:13;97195.22;;;20.08;41.80
83551;BME280;74617;47.082;15.524;2024-01-25T05:00:38;97213.66;;;20.03;42.16
83551;BME280;74617;47.082;15.524;2024-01-25T05:03:05;97191.38;;;20.01;42.23
83551;BME280;74617;47.082;15.524;2024-01-25T05:05:30;97184.16;;;19.96;42.29
83551;BME280;74617;47.082;15.524;2024-01-25T05:07:55;97175.34;;;19.99;42.20
83551;BME280;74617;47.082;15.524;2024-01-25T05:10:21;97183.38;;;20.04;41.90
83551;BME280;74617;47.082;15.524;2024-01-25T05:12:48;97187.38;;;19.98;41.77
83551;BME280;74617;47.082;15.524;2024-01-25T05:15:13;97194.13;;;20.01;41.99
83551;BME280;74617;47.082;15.524;2024-01-25T05:17:39;97200.69;;;20.00;41.77
83551;BME280;74617;47.082;15.524;2024-01-25T05:20:05;97204.22;;;20.00;41.63
83551;BME280;74617;47.082;15.524;2024-01-25T05:22:32;97191.56;;;20.04;41.65
83551;BME280;74617;47.082;15.524;2024-01-25T05:24:57;97220.25;;;20.02;41.59
83551;BME280;74617;47.082;15.524;2024-01-25T05:27:23;97216.25;;;19.99;41.84
83551;BME280;74617;47.082;15.524;2024-01-25T05:29:49;97222.66;;;20.03;41.80
83551;BME280;74617;47.082;15.524;2024-01-25T05:32:14;97231.97;;;20.02;42.04
83551;BME280;74617;47.082;15.524;2024-01-25T05:34:39;97235.03;;;20.01;41.87
83551;BME280;74617;47.082;15.524;2024-01-25T05:37:05;97235.66;;;20.06;41.71
83551;BME280;74617;47.082;15.524;2024-01-25T05:39:30;97234.06;;;20.05;41.68
83551;BME280;74617;47.082;15.524;2024-01-25T05:41:55;97237.72;;;20.09;41.97
83551;BME280;74617;47.082;15.524;2024-01-25T05:44:21;97243.19;;;20.09;41.94
83551;BME280;74617;47.082;15.524;2024-01-25T05:46:46;97246.41;;;20.11;41.83
83551;BME280;74617;47.082;15.524;2024-01-25T05:49:12;97244.19;;;20.05;41.67
83551;BME280;74617;47.082;15.524;2024-01-25T05:51:37;97263.44;;;19.91;41.67
83551;BME280;74617;47.082;15.524;2024-01-25T05:54:02;97277.88;;;19.83;41.76
83551;BME280;74617;47.082;15.524;2024-01-25T05:56:28;97260.72;;;19.91;41.09
83551;BME280;74617;47.082;15.524;2024-01-25T05:58:53;97257.34;;;19.94;40.91
83551;BME280;74617;47.082;15.524;2024-01-25T06:01:19;97245.78;;;19.97;40.68
83551;BME280;74617;47.082;15.524;2024-01-25T06:03:44;97248.53;;;19.97;40.36
83551;BME280;74617;47.082;15.524;2024-01-25T06:06:09;97258.59;;;19.97;40.39
83551;BME280;74617;47.082;15.524;2024-01-25T06:08:35;97245.78;;;19.97;40.34
83551;BME280;74617;47.082;15.524;2024-01-25T06:11:00;97254.78;;;19.98;40.25
83551;BME280;74617;47.082;15.524;2024-01-25T06:13:26;97267.28;;;19.99;40.36
83551;BME280;74617;47.082;15.524;2024-01-25T06:15:51;97257.19;;;19.99;40.33
83551;BME280;74617;47.082;15.524;2024-01-25T06:18:16;97257.97;;;20.00;40.23
83551;BME280;74617;47.082;15.524;2024-01-25T06:20:42;97254.44;;;19.99;40.25
83551;BME280;74617;47.082;15.524;2024-01-25T06:23:09;97261.50;;;20.00;40.12
83551;BME280;74617;47.082;15.524;2024-01-25T06:25:34;97254.91;;;20.01;40.08
83551;BME280;74617;47.082;15.524;2024-01-25T06:28:01;97253.31;;;20.00;39.96
83551;BME280;74617;47.082;15.524;2024-01-25T06:30:27;97247.53;;;20.02;40.16
83551;BME280;74617;47.082;15.524;2024-01-25T06:32:52;97256.53;;;20.02;40.27
83551;BME280;74617;47.082;15.524;2024-01-25T06:35:17;97256.53;;;20.02;40.30
83551;BME280;74617;47.082;15.524;2024-01-25T06:37:43;97267.09;;;20.04;40.21
83551;BME280;74617;47.082;15.524;2024-01-25T06:40:08;97271.47;;;20.05;40.02
83551;BME280;74617;47.082;15.524;2024-01-25T06:42:34;97273.69;;;20.03;40.20
83551;BME280;74617;47.082;15.524;2024-01-25T06:44:59;97274.97;;;20.05;40.00
83551;BME280;74617;47.082;15.524;2024-01-25T06:47:24;97294.06;;;20.05;39.91
83551;BME280;74617;47.082;15.524;2024-01-25T06:49:50;97292.94;;;20.06;39.92
83551;BME280;74617;47.082;15.524;2024-01-25T06:52:17;97282.03;;;20.06;39.96
83551;BME280;74617;47.082;15.524;2024-01-25T06:54:43;97301.94;;;20.07;39.93
83551;BME280;74617;47.082;15.524;2024-01-25T06:57:08;97283.63;;;20.07;39.63
83551;BME280;74617;47.082;15.524;2024-01-25T06:59:33;97278.19;;;20.07;39.72
83551;BME280;74617;47.082;15.524;2024-01-25T07:01:59;97291.81;;;20.07;39.80
83551;BME280;74617;47.082;15.524;2024-01-25T07:04:25;97291.50;;;20.09;39.83
83551;BME280;74617;47.082;15.524;2024-01-25T07:06:51;97297.75;;;20.09;39.63
83551;BME280;74617;47.082;15.524;2024-01-25T07:09:16;97310.59;;;20.09;39.65
83551;BME280;74617;47.082;15.524;2024-01-25T07:11:42;97320.06;;;20.11;39.77
83551;BME280;74617;47.082;15.524;2024-01-25T07:14:07;97314.63;;;20.11;39.80
83551;BME280;74617;47.082;15.524;2024-01-25T07:16:32;97300.97;;;20.11;39.80
83551;BME280;74617;47.082;15.524;2024-01-25T07:18:58;97302.06;;;20.10;39.56
83551;BME280;74617;47.082;15.524;2024-01-25T07:21:23;97300.97;;;20.11;39.77
83551;BME280;74617;47.082;15.524;2024-01-25T07:23:48;97294.72;;;20.11;39.56
83551;BME280;74617;47.082;15.524;2024-01-25T07:26:18;97306.44;;;20.11;39.54
83551;BME280;74617;47.082;15.524;2024-01-25T07:28:43;97284.28;;;20.13;39.55
83551;BME280;74617;47.082;15.524;2024-01-25T07:31:09;97299.84;;;20.12;39.59
83551;BME280;74617;47.082;15.524;2024-01-25T07:33:35;97285.06;;;20.13;39.61
83551;BME280;74617;47.082;15.524;2024-01-25T07:36:02;97293.25;;;20.13;39.47
83551;BME280;74617;47.082;15.524;2024-01-25T07:38:28;97292.13;;;20.14;39.69
83551;BME280;74617;47.082;15.524;2024-01-25T07:40:53;97277.69;;;20.14;39.69
83551;BME280;74617;47.082;15.524;2024-01-25T07:43:18;97264.06;;;20.14;39.47
83551;BME280;74617;47.082;15.524;2024-01-25T07:45:44;97261.66;;;20.12;39.55
83551;BME280;74617;47.082;15.524;2024-01-25T07:48:09;97289.72;;;20.13;39.41
83551;BME280;74617;47.082;15.524;2024-01-25T07:50:34;97272.22;;;20.14;39.28
83551;BME280;74617;47.082;15.524;2024-01-25T07:53:00;97253.13;;;20.14;39.37
83551;BME280;74617;47.082;15.524;2024-01-25T07:55:27;97245.28;;;20.12;39.17
83551;BME280;74617;47.082;15.524;2024-01-25T07:57:53;97249.59;;;20.13;39.14
83551;BME280;74617;47.082;15.524;2024-01-25T08:00:19;97257.47;;;20.15;39.21
83551;BME280;74617;47.082;15.524;2024-01-25T08:02:44;97261.00;;;20.15;38.94
83551;BME280;74617;47.082;15.524;2024-01-25T08:05:10;97273.50;;;20.16;38.98
83551;BME280;74617;47.082;15.524;2024-01-25T08:07:36;97250.88;;;20.16;39.09
83551;BME280;74617;47.082;15.524;2024-01-25T08:10:04;97279.75;;;20.17;38.91
83551;BME280;74617;47.082;15.524;2024-01-25T08:12:29;97269.66;;;20.17;38.99
83551;BME280;74617;47.082;15.524;2024-01-25T08:14:55;97267.75;;;20.18;39.07
83551;BME280;74617;47.082;15.524;2024-01-25T08:17:20;97267.41;;;20.19;38.95
83551;BME280;74617;47.082;15.524;2024-01-25T08:19:46;97240.47;;;20.18;38.69
83551;BME280;74617;47.082;15.524;2024-01-25T08:22:12;97245.41;;;20.25;39.00
83551;BME280;74617;47.082;15.524;2024-01-25T08:24:38;97229.84;;;20.25;39.00
83551;BME280;74617;47.082;15.524;2024-01-25T08:27:04;97218.13;;;20.25;39.21
83551;BME280;74617;47.082;15.524;2024-01-25T08:29:30;97210.41;;;20.27;39.10
83551;BME280;74617;47.082;15.524;2024-01-25T08:31:55;97219.41;;;20.27;39.24
83551;BME280;74617;47.082;15.524;2024-01-25T08:34:21;97214.41;;;20.29;39.15
83551;BME280;74617;47.082;15.524;2024-01-25T08:36:46;97219.53;;;20.31;39.21
83551;BME280;74617;47.082;15.524;2024-01-25T08:39:12;97208.31;;;20.32;39.14
83551;BME280;74617;47.082;15.524;2024-01-25T08:41:37;97205.88;;;20.31;39.05
83551;BME280;74617;47.082;15.524;2024-01-25T08:44:03;97217.31;;;20.33;39.22
83551;BME280;74617;47.082;15.524;2024-01-25T08:46:28;97225.50;;;20.33;39.09
83551;BME280;74617;47.082;15.524;2024-01-25T08:48:53;97225.94;;;20.35;39.08
83551;BME280;74617;47.082;15.524;2024-01-25T08:51:19;97221.28;;;20.35;38.94
83551;BME280;74617;47.082;15.524;2024-01-25T08:53:44;97211.81;;;20.41;38.77
83551;BME280;74617;47.082;15.524;2024-01-25T08:56:10;97227.38;;;20.41;38.78
83551;BME280;74617;47.082;15.524;2024-01-25T08:58:35;97223.06;;;20.40;39.25
83551;BME280;74617;47.082;15.524;2024-01-25T09:01:01;97212.78;;;20.45;39.29
83551;BME280;74617;47.082;15.524;2024-01-25T09:03:26;97234.91;;;20.44;39.35
83551;BME280;74617;47.082;15.524;2024-01-25T09:05:51;97228.97;;;20.42;39.43
83551;BME280;74617;47.082;15.524;2024-01-25T09:08:17;97237.63;;;20.44;39.44
83551;BME280;74617;47.082;15.524;2024-01-25T09:10:43;97239.56;;;20.43;39.55
83551;BME280;74617;47.082;15.524;2024-01-25T09:13:09;97244.72;;;20.45;39.36
83551;BME280;74617;47.082;15.524;2024-01-25T09:15:35;97252.41;;;20.52;39.14
83551;BME280;74617;47.082;15.524;2024-01-25T09:18:01;97232.31;;;20.56;39.56
83551;BME280;74617;47.082;15.524;2024-01-25T09:20:26;97248.41;;;20.49;39.76
83551;BME280;74617;47.082;15.524;2024-01-25T09:22:52;97255.00;;;20.48;39.78
83551;BME280;74617;47.082;15.524;2024-01-25T09:25:20;97273.31;;;20.47;39.71
83551;BME280;74617;47.082;15.524;2024-01-25T09:27:45;97267.84;;;20.47;39.51
83551;BME280;74617;47.082;15.524;2024-01-25T09:30:11;97268.66;;;20.48;39.48
83551;BME280;74617;47.082;15.524;2024-01-25T09:32:37;97260.47;;;20.48;39.45
83551;BME280;74617;47.082;15.524;2024-01-25T09:35:02;97268.66;;;20.48;39.38
83551;BME280;74617;47.082;15.524;2024-01-25T09:37:28;97265.91;;;20.48;39.29
83551;BME280;74617;47.082;15.524;2024-01-25T09:39:53;97265.91;;;20.48;39.52
83551;BME280;74617;47.082;15.524;2024-01-25T09:42:19;97271.03;;;20.49;39.36
83551;BME280;74617;47.082;15.524;2024-01-25T09:44:45;97277.81;;;20.52;39.21
83551;BME280;74617;47.082;15.524;2024-01-25T09:47:11;97281.81;;;20.55;39.48
83551;BME280;74617;47.082;15.524;2024-01-25T09:49:36;97286.94;;;20.56;39.41
83551;BME280;74617;47.082;15.524;2024-01-25T09:52:03;97283.06;;;20.57;39.22
83551;BME280;74617;47.082;15.524;2024-01-25T09:54:35;97272.63;;;20.59;39.09
83551;BME280;74617;47.082;15.524;2024-01-25T09:57:05;97290.28;;;20.62;39.30
83551;BME280;74617;47.082;15.524;2024-01-25T09:59:31;97289.94;;;20.63;39.24
83551;BME280;74617;47.082;15.524;2024-01-25T10:01:57;97295.09;;;20.65;38.90
83551;BME280;74617;47.082;15.524;2024-01-25T10:04:24;97285.47;;;20.67;38.85
83551;BME280;74617;47.082;15.524;2024-01-25T10:06:50;97303.09;;;20.70;38.43
83551;BME280;74617;47.082;15.524;2024-01-25T10:09:15;97294.56;;;20.71;38.31
83551;BME280;74617;47.082;15.524;2024-01-25T10:11:41;97298.09;;;20.72;38.31
83551;BME280;74617;47.082;15.524;2024-01-25T10:14:06;97275.97;;;20.73;38.51
83551;BME280;74617;47.082;15.524;2024-01-25T10:16:33;97270.16;;;20.75;38.27
83551;BME280;74617;47.082;15.524;2024-01-25T10:18:59;97278.03;;;20.76;38.15
83551;BME280;74617;47.082;15.524;2024-01-25T10:21:24;97286.69;;;20.79;38.07
83551;BME280;74617;47.082;15.524;2024-01-25T10:23:49;97289.09;;;20.80;38.01
83551;BME280;74617;47.082;15.524;2024-01-25T10:26:16;97281.72;;;20.81;37.68
83551;BME280;74617;47.082;15.524;2024-01-25T10:28:42;97277.84;;;20.82;37.95
83551;BME280;74617;47.082;15.524;2024-01-25T10:31:08;97288.09;;;20.85;37.80
83551;BME280;74617;47.082;15.524;2024-01-25T10:33:34;97272.50;;;20.85;37.92
83551;BME280;74617;47.082;15.524;2024-01-25T10:36:00;97269.47;;;20.87;37.90
83551;BME280;74617;47.082;15.524;2024-01-25T10:38:33;97274.59;;;20.88;37.80
83551;BME280;74617;47.082;15.524;2024-01-25T10:41:01;97272.66;;;20.89;38.00
83551;BME280;74617;47.082;15.524;2024-01-25T10:43:27;97279.72;;;20.90;37.57
83551;BME280;74617;47.082;15.524;2024-01-25T10:45:53;97281.78;;;20.93;37.47
83551;BME280;74617;47.082;15.524;2024-01-25T10:48:21;97279.56;;;20.95;37.51
83551;BME280;74617;47.082;15.524;2024-01-25T10:50:48;97238.59;;;20.95;37.57
83551;BME280;74617;47.082;15.524;2024-01-25T10:53:15;97277.63;;;20.95;37.45
83551;BME280;74617;47.082;15.524;2024-01-25T10:55:40;97260.44;;;20.95;37.32
83551;BME280;74617;47.082;15.524;2024-01-25T10:58:07;97271.19;;;21.00;37.41
83551;BME280;74617;47.082;15.524;2024-01-25T11:00:35;97269.25;;;21.00;37.18
83551;BME280;74617;47.082;15.524;2024-01-25T11:03:01;97270.03;;;21.01;37.26
83551;BME280;74617;47.082;15.524;2024-01-25T11:05:27;97262.31;;;21.03;37.53
83551;BME280;74617;47.082;15.524;2024-01-25T11:07:53;97273.25;;;21.03;37.80
83551;BME280;74617;47.082;15.524;2024-01-25T11:10:22;97244.00;;;21.03;37.86
83551;BME280;74617;47.082;15.524;2024-01-25T11:12:54;97233.22;;;21.07;37.71
83551;BME280;74617;47.082;15.524;2024-01-25T11:15:29;97236.75;;;21.08;37.67
83551;BME280;74617;47.082;15.524;2024-01-25T11:17:55;97243.00;;;21.08;37.66
83551;BME280;74617;47.082;15.524;2024-01-25T11:20:25;97248.94;;;21.10;37.54
83551;BME280;74617;47.082;15.524;2024-01-25T11:25:23;97256.41;;;21.30;38.51
83551;BME280;74617;47.082;15.524;2024-01-25T11:27:51;97239.69;;;21.23;38.18
83551;BME280;74617;47.082;15.524;2024-01-25T11:30:18;97232.63;;;21.22;38.49
83551;BME280;74617;47.082;15.524;2024-01-25T11:32:49;97229.41;;;21.20;38.46
83551;BME280;74617;47.082;15.524;2024-01-25T11:35:15;97238.44;;;21.21;38.42
83551;BME280;74617;47.082;15.524;2024-01-25T11:37:47;97232.47;;;21.19;38.89
83551;BME280;74617;47.082;15.524;2024-01-25T11:40:15;97227.81;;;21.19;38.80
83551;BME280;74617;47.082;15.524;2024-01-25T11:42:42;97223.94;;;21.20;38.74
83551;BME280;74617;47.082;15.524;2024-01-25T11:45:10;97246.28;;;21.22;38.47
83551;BME280;74617;47.082;15.524;2024-01-25T11:47:37;97240.63;;;21.27;38.17
83551;BME280;74617;47.082;15.524;2024-01-25T11:50:03;97247.84;;;21.32;38.54
83551;BME280;74617;47.082;15.524;2024-01-25T11:52:30;97249.78;;;21.32;38.46
83551;BME280;74617;47.082;15.524;2024-01-25T11:54:59;97244.78;;;21.34;38.57
83551;BME280;74617;47.082;15.524;2024-01-25T11:57:24;97253.13;;;21.37;38.56
83551;BME280;74617;47.082;15.524;2024-01-25T11:59:50;97252.44;;;21.40;38.46
83551;BME280;74617;47.082;15.524;2024-01-25T12:02:16;97249.41;;;21.42;38.38
83551;BME280;74617;47.082;15.524;2024-01-25T12:04:41;97248.72;;;21.45;38.66
83551;BME280;74617;47.082;15.524;2024-01-25T12:07:07;97235.84;;;21.45;39.34
83551;BME280;74617;47.082;15.524;2024-01-25T12:09:33;97243.41;;;21.48;38.92
83551;BME280;74617;47.082;15.524;2024-01-25T12:12:00;97247.06;;;21.52;38.61
83551;BME280;74617;47.082;15.524;2024-01-25T12:14:27;97235.78;;;21.54;38.84
83551;BME280;74617;47.082;15.524;2024-01-25T12:16:55;97237.06;;;21.56;38.86
83551;BME280;74617;47.082;15.524;2024-01-25T12:19:20;97234.00;;;21.58;38.57
83551;BME280;74617;47.082;15.524;2024-01-25T12:21:47;97232.53;;;21.61;38.74
83551;BME280;74617;47.082;15.524;2024-01-25T12:24:12;97223.13;;;21.70;38.41
83551;BME280;74617;47.082;15.524;2024-01-25T12:26:38;97236.00;;;21.70;38.31
83551;BME280;74617;47.082;15.524;2024-01-25T12:29:03;97218.78;;;21.69;38.89
83551;BME280;74617;47.082;15.524;2024-01-25T12:31:30;97223.91;;;21.71;38.41
83551;BME280;74617;47.082;15.524;2024-01-25T12:33:56;97224.38;;;21.73;38.53
83551;BME280;74617;47.082;15.524;2024-01-25T12:36:23;97215.50;;;21.76;38.47
83551;BME280;74617;47.082;15.524;2024-01-25T12:38:48;97213.88;;;21.75;38.53
83551;BME280;74617;47.082;15.524;2024-01-25T12:41:14;97208.91;;;21.77;39.00
83551;BME280;74617;47.082;15.524;2024-01-25T12:43:40;97208.09;;;21.76;38.67
83551;BME280;74617;47.082;15.524;2024-01-25T12:46:05;97209.81;;;21.81;38.04